createdAt,value
2022-09-18T00:00:56.433Z,43.78
2022-09-18T00:05:59.093Z,43.69
2022-09-18T00:11:04.354Z,44.08
2022-09-18T00:16:09.598Z,44.07
2022-09-18T00:21:13.495Z,44.25
2022-09-18T00:26:18.308Z,44.45
2022-09-18T00:31:25.557Z,44.60
2022-09-18T00:36:29.392Z,44.56
2022-09-18T00:41:33.368Z,44.60
2022-09-18T00:46:37.676Z,44.93
2022-09-18T00:51:40.759Z,44.81
2022-09-18T00:56:43.979Z,44.91
2022-09-18T01:01:48.089Z,44.86
2022-09-18T01:06:53.445Z,44.89
2022-09-18T01:11:59.161Z,45.00
2022-09-18T01:17:06.287Z,45.02
2022-09-18T01:22:15.940Z,44.89
2022-09-18T01:27:23.231Z,45.45
2022-09-18T01:32:29.092Z,45.34
2022-09-18T01:37:33.934Z,45.44
2022-09-18T01:42:37.623Z,45.27
2022-09-18T01:47:43.119Z,45.63
2022-09-18T01:52:47.843Z,45.57
2022-09-18T01:57:52.690Z,45.82
2022-09-18T02:02:59.597Z,45.74
2022-09-18T02:08:09.210Z,45.65
2022-09-18T02:13:12.554Z,45.98
2022-09-18T02:18:19.466Z,45.98
2022-09-18T02:23:22.363Z,45.91
2022-09-18T02:28:25.341Z,46.07
2022-09-18T02:33:31.019Z,46.25
2022-09-18T02:38:36.846Z,46.28
2022-09-18T02:43:43.212Z,46.37
2022-09-18T02:48:50.231Z,46.53
2022-09-18T02:53:57.464Z,46.75
2022-09-18T02:59:03.617Z,47.01
2022-09-18T03:04:12.166Z,47.01
2022-09-18T03:09:34.818Z,47.06
2022-09-18T03:14:37.575Z,47.09
2022-09-18T03:19:44.527Z,47.42
2022-09-18T03:24:47.211Z,47.60
2022-09-18T03:29:51.856Z,47.74
2022-09-18T03:34:59.320Z,47.91
2022-09-18T03:40:04.103Z,48.00
2022-09-18T03:45:08.278Z,48.01
2022-09-18T03:50:12.589Z,48.29
2022-09-18T03:55:15.900Z,48.45
2022-09-18T04:00:37.213Z,48.61
2022-09-18T04:05:48.894Z,48.56
2022-09-18T04:11:26.672Z,48.42
2022-09-18T04:16:29.767Z,48.61
2022-09-18T04:21:33.903Z,48.55
2022-09-18T04:26:36.758Z,48.63
2022-09-18T04:31:40.193Z,48.86
2022-09-18T04:36:49.005Z,48.86
2022-09-18T04:41:52.185Z,48.91
2022-09-18T04:46:56.001Z,49.13
2022-09-18T04:52:00.313Z,49.29
2022-09-18T04:57:03.932Z,49.64
2022-09-18T05:02:06.739Z,49.56
2022-09-18T05:07:12.297Z,49.70
2022-09-18T05:12:15.124Z,49.62
2022-09-18T05:17:18.065Z,49.62
2022-09-18T05:22:40.786Z,49.80
2022-09-18T05:27:54.435Z,49.83
2022-09-18T05:32:59.329Z,49.91
2022-09-18T05:38:05.460Z,50.12
2022-09-18T05:43:08.498Z,50.24
2022-09-18T05:48:13.202Z,50.10
2022-09-18T05:53:18.462Z,41.79
2022-09-18T05:58:29.651Z,41.78
2022-09-18T06:03:32.669Z,41.31
2022-09-18T06:08:38.176Z,42.25
2022-09-18T06:13:41.178Z,43.70
2022-09-18T06:18:43.856Z,44.07
2022-09-18T06:23:47.895Z,44.44
2022-09-18T06:29:00.125Z,45.15
2022-09-18T06:34:07.732Z,45.11
2022-09-18T06:39:11.793Z,45.44
2022-09-18T06:44:14.683Z,45.93
2022-09-18T06:49:24.500Z,46.23
2022-09-18T06:54:28.528Z,46.13
2022-09-18T06:59:31.284Z,46.72
2022-09-18T07:04:35.104Z,46.83
2022-09-18T07:09:39.157Z,47.01
2022-09-18T07:14:51.642Z,47.04
2022-09-18T07:19:55.479Z,47.18
2022-09-18T07:25:05.025Z,47.14
2022-09-18T07:30:08.784Z,47.67
2022-09-18T07:35:11.703Z,46.85
2022-09-18T07:40:16.229Z,46.86
2022-09-18T07:45:40.502Z,46.93
2022-09-18T07:50:43.232Z,46.52
2022-09-18T07:55:48.015Z,46.44
2022-09-18T08:00:51.299Z,46.18
2022-09-18T08:05:55.795Z,46.20
2022-09-18T08:11:00.793Z,45.98
2022-09-18T08:16:21.711Z,45.88
2022-09-18T08:21:43.255Z,45.73
2022-09-18T08:26:49.903Z,45.72
2022-09-18T08:31:52.813Z,45.83
2022-09-18T08:36:58.204Z,45.67
2022-09-18T08:42:30.165Z,45.28
2022-09-18T08:47:36.660Z,44.83
2022-09-18T08:52:43.490Z,44.67
2022-09-18T08:58:04.650Z,44.35
2022-09-18T09:03:20.253Z,44.51
2022-09-18T09:08:38.706Z,44.43
2022-09-18T09:14:10.587Z,44.89
2022-09-18T09:19:26.614Z,45.03
2022-09-18T09:24:32.487Z,45.16
2022-09-18T09:29:43.422Z,45.15
2022-09-18T09:35:22.679Z,45.17
2022-09-18T09:40:54.629Z,44.85
2022-09-18T09:46:01.154Z,45.08
2022-09-18T09:51:06.589Z,45.01
2022-09-18T09:56:13.104Z,45.10
2022-09-18T10:01:19.542Z,45.06
2022-09-18T10:06:32.084Z,45.54
2022-09-18T10:11:35.116Z,45.70
2022-09-18T10:16:41.737Z,45.76
2022-09-18T10:21:46.476Z,45.62
2022-09-18T10:26:50.923Z,46.00
2022-09-18T10:31:56.846Z,46.04
2022-09-18T10:37:01.770Z,46.71
2022-09-18T10:42:05.761Z,48.19
2022-09-18T10:47:12.450Z,47.86
2022-09-18T10:52:27.058Z,46.94
2022-09-18T10:57:31.271Z,47.21
2022-09-18T11:02:41.369Z,46.67
2022-09-18T11:07:48.443Z,46.49
2022-09-18T11:12:55.711Z,46.39
2022-09-18T11:18:08.673Z,46.20
2022-09-18T11:23:16.775Z,45.99
2022-09-18T11:28:24.049Z,45.80
2022-09-18T11:33:29.735Z,46.18
2022-09-18T11:38:35.044Z,45.89
2022-09-18T11:43:38.613Z,45.85
2022-09-18T11:48:45.390Z,45.41
2022-09-18T11:53:51.286Z,45.36
2022-09-18T11:58:56.354Z,45.29
2022-09-18T12:04:04.661Z,45.25
2022-09-18T12:09:10.675Z,45.33
2022-09-18T12:14:17.044Z,45.38
2022-09-18T12:19:33.912Z,45.36
2022-09-18T12:24:36.958Z,45.19
2022-09-18T12:30:13.354Z,45.03
2022-09-18T12:35:21.082Z,45.54
2022-09-18T12:40:33.996Z,45.82
2022-09-18T12:46:04.853Z,45.80
2022-09-18T12:51:18.010Z,46.06
2022-09-18T12:56:30.206Z,46.34
2022-09-18T13:01:34.320Z,46.33
2022-09-18T13:06:42.491Z,46.38
2022-09-18T13:11:47.223Z,46.49
2022-09-18T13:16:52.294Z,47.31
2022-09-18T13:21:56.375Z,46.99
2022-09-18T13:26:59.065Z,47.09
2022-09-18T13:32:02.452Z,47.29
2022-09-18T13:37:07.358Z,47.34
2022-09-18T13:42:10.109Z,47.59
2022-09-18T13:47:14.035Z,47.77
2022-09-18T13:52:42.807Z,47.74
2022-09-18T13:57:45.577Z,47.73
2022-09-18T14:02:48.459Z,47.98
2022-09-18T14:08:14.246Z,47.90
2022-09-18T14:13:31.629Z,48.14
2022-09-18T14:18:36.756Z,48.11
2022-09-18T14:24:05.377Z,48.06
2022-09-18T14:29:11.175Z,48.23
2022-09-18T14:34:16.823Z,48.38
2022-09-18T14:39:25.103Z,48.31
2022-09-18T14:44:28.335Z,48.57
2022-09-18T14:49:33.996Z,48.56
2022-09-18T14:54:41.003Z,48.54
2022-09-18T14:59:46.420Z,48.88
2022-09-18T15:04:49.218Z,48.97
2022-09-18T15:09:55.279Z,48.36
2022-09-18T15:14:59.075Z,48.80
2022-09-18T15:20:02.964Z,48.65
2022-09-18T15:25:12.419Z,48.68
2022-09-18T15:30:16.321Z,48.90
2022-09-18T15:35:20.822Z,48.95
2022-09-18T15:40:28.352Z,48.74
2022-09-18T15:45:31.803Z,48.76
2022-09-18T15:50:39.154Z,48.80
2022-09-18T15:56:11.773Z,48.76
2022-09-18T16:01:27.201Z,48.85
2022-09-18T16:06:32.328Z,48.92
2022-09-18T16:11:44.614Z,48.74
2022-09-18T16:16:47.266Z,48.84
2022-09-18T16:21:49.937Z,48.76
2022-09-18T16:26:54.084Z,48.88
2022-09-18T16:31:57.509Z,49.19
2022-09-18T16:37:00.217Z,48.99
2022-09-18T16:42:08.022Z,49.28
2022-09-18T16:47:12.551Z,49.51
2022-09-18T16:52:15.275Z,49.22
2022-09-18T16:57:21.694Z,49.19
2022-09-18T17:02:26.219Z,49.07
2022-09-18T17:07:29.929Z,48.50
2022-09-18T17:12:34.290Z,48.55
2022-09-18T17:17:37.010Z,48.31
2022-09-18T17:22:39.698Z,48.25
2022-09-18T17:27:44.070Z,47.93
2022-09-18T17:32:48.029Z,47.74
2022-09-18T17:37:51.735Z,47.83
2022-09-18T17:42:56.608Z,47.56
2022-09-18T17:47:59.468Z,47.27
2022-09-18T17:53:02.472Z,47.10
2022-09-18T17:58:06.730Z,47.02
2022-09-18T18:03:09.506Z,46.77
2022-09-18T18:08:12.168Z,46.67
2022-09-18T18:13:17.924Z,46.46
2022-09-18T18:18:20.761Z,46.32
2022-09-18T18:23:23.593Z,46.40
2022-09-18T18:28:30.288Z,47.34
2022-09-18T18:33:33.457Z,47.88
2022-09-18T18:38:36.365Z,47.88
2022-09-18T18:43:41.016Z,47.88
2022-09-18T18:48:44.368Z,47.68
2022-09-18T18:53:47.168Z,47.82
2022-09-18T18:58:55.985Z,47.59
2022-09-18T19:04:00.367Z,47.79
2022-09-18T19:09:05.722Z,47.66
2022-09-18T19:14:11.695Z,47.59
2022-09-18T19:19:15.410Z,47.78
2022-09-18T19:24:19.112Z,47.93
2022-09-18T19:29:23.246Z,47.99
2022-09-18T19:34:26.026Z,47.73
2022-09-18T19:39:28.871Z,47.72
2022-09-18T19:44:35.065Z,47.75
2022-09-18T19:49:38.129Z,47.84
2022-09-18T19:54:40.940Z,47.94
2022-09-18T19:59:44.950Z,48.12
2022-09-18T20:04:47.738Z,47.79
2022-09-18T20:09:51.003Z,47.79
2022-09-18T20:14:56.878Z,47.83
2022-09-18T20:19:59.729Z,47.68
2022-09-18T20:25:02.427Z,47.76
2022-09-18T20:30:07.700Z,47.60
2022-09-18T20:35:10.893Z,47.71
2022-09-18T20:40:14.136Z,47.40
2022-09-18T20:45:18.563Z,47.49
2022-09-18T20:50:25.595Z,47.44
2022-09-18T20:55:28.371Z,47.36
2022-09-18T21:00:32.464Z,47.27
2022-09-18T21:05:35.772Z,47.33
2022-09-18T21:10:46.583Z,47.34
2022-09-18T21:15:50.667Z,47.11
2022-09-18T21:21:01.976Z,47.19
2022-09-18T21:26:14.497Z,47.28
2022-09-18T21:31:21.752Z,47.07
2022-09-18T21:36:25.559Z,47.09
2022-09-18T21:41:28.263Z,47.00
2022-09-18T21:46:34.310Z,47.05
2022-09-18T21:51:37.619Z,46.84
2022-09-18T21:56:40.294Z,46.93
2022-09-18T22:01:44.366Z,47.09
2022-09-18T22:06:47.518Z,47.20
2022-09-18T22:11:50.889Z,47.26
2022-09-18T22:16:56.326Z,47.14
2022-09-18T22:21:59.028Z,46.91
2022-09-18T22:27:08.317Z,46.50
2022-09-18T22:32:12.607Z,46.43
2022-09-18T22:37:15.298Z,46.62
2022-09-18T22:42:18.010Z,46.41
2022-09-18T22:47:21.986Z,46.74
2022-09-18T22:52:24.760Z,46.78
2022-09-18T22:57:27.508Z,46.76
2022-09-18T23:02:32.089Z,46.95
2022-09-18T23:07:38.746Z,46.99
2022-09-18T23:12:41.507Z,47.00
2022-09-18T23:17:46.057Z,47.14
2022-09-18T23:22:48.722Z,47.10
2022-09-18T23:27:53.452Z,47.39
2022-09-18T23:32:57.517Z,47.64
2022-09-18T23:38:00.198Z,47.82
2022-09-18T23:43:03.036Z,47.87
2022-09-18T23:48:07.052Z,48.35
2022-09-18T23:53:09.726Z,48.25
2022-09-18T23:58:12.438Z,48.57
